sensor_id;sensor_type;location;lat;lon;timestamp;P1;durP1;ratioP1;P2;durP2;ratioP2
71902;SDS011;59778;50.310;18.780;2022-12-24T00:05:28;47.30;;;22.77;;
71902;SDS011;59778;50.310;18.780;2022-12-24T00:20:49;56.47;;;24.57;;
71902;SDS011;59778;50.310;18.780;2022-12-24T00:36:11;58.87;;;24.47;;
71902;SDS011;59778;50.310;18.780;2022-12-24T00:51:33;55.80;;;23.60;;
71902;SDS011;59778;50.310;18.780;2022-12-24T01:06:55;48.83;;;24.07;;
71902;SDS011;59778;50.310;18.780;2022-12-24T01:22:17;47.67;;;22.47;;
71902;SDS011;59778;50.310;18.780;2022-12-24T01:37:40;39.20;;;18.77;;
71902;SDS011;59778;50.310;18.780;2022-12-24T01:53:02;28.27;;;10.80;;
71902;SDS011;59778;50.310;18.780;2022-12-24T02:08:26;15.90;;;7.50;;
71902;SDS011;59778;50.310;18.780;2022-12-24T02:39:51;17.07;;;7.83;;
71902;SDS011;59778;50.310;18.780;2022-12-24T03:11:11;31.27;;;12.40;;
71902;SDS011;59778;50.310;18.780;2022-12-24T03:26:33;25.47;;;11.17;;
71902;SDS011;59778;50.310;18.780;2022-12-24T03:41:54;28.33;;;13.37;;
71902;SDS011;59778;50.310;18.780;2022-12-24T03:57:16;25.93;;;12.93;;
71902;SDS011;59778;50.310;18.780;2022-12-24T04:12:37;25.77;;;13.17;;
71902;SDS011;59778;50.310;18.780;2022-12-24T04:27:58;24.17;;;12.33;;
71902;SDS011;59778;50.310;18.780;2022-12-24T04:43:19;24.87;;;12.97;;
71902;SDS011;59778;50.310;18.780;2022-12-24T04:58:41;31.20;;;16.73;;
71902;SDS011;59778;50.310;18.780;2022-12-24T05:14:03;36.03;;;18.03;;
71902;SDS011;59778;50.310;18.780;2022-12-24T05:29:24;28.60;;;15.00;;
71902;SDS011;59778;50.310;18.780;2022-12-24T05:44:45;23.13;;;12.27;;
71902;SDS011;59778;50.310;18.780;2022-12-24T06:00:09;29.23;;;15.77;;
71902;SDS011;59778;50.310;18.780;2022-12-24T06:15:31;26.73;;;14.03;;
71902;SDS011;59778;50.310;18.780;2022-12-24T06:30:52;26.50;;;14.03;;
71902;SDS011;59778;50.310;18.780;2022-12-24T06:46:13;26.93;;;14.00;;
71902;SDS011;59778;50.310;18.780;2022-12-24T07:01:35;30.90;;;15.20;;
71902;SDS011;59778;50.310;18.780;2022-12-24T07:16:57;29.83;;;15.30;;
71902;SDS011;59778;50.310;18.780;2022-12-24T07:32:18;29.17;;;16.07;;
71902;SDS011;59778;50.310;18.780;2022-12-24T07:47:40;37.43;;;18.67;;
71902;SDS011;59778;50.310;18.780;2022-12-24T08:03:01;34.97;;;17.00;;
71902;SDS011;59778;50.310;18.780;2022-12-24T08:18:23;35.10;;;16.73;;
71902;SDS011;59778;50.310;18.780;2022-12-24T08:33:45;38.70;;;16.50;;
71902;SDS011;59778;50.310;18.780;2022-12-24T08:49:06;30.33;;;12.07;;
71902;SDS011;59778;50.310;18.780;2022-12-24T09:04:27;23.97;;;10.60;;
71902;SDS011;59778;50.310;18.780;2022-12-24T09:19:49;15.20;;;6.90;;
71902;SDS011;59778;50.310;18.780;2022-12-24T09:35:11;17.07;;;6.80;;
71902;SDS011;59778;50.310;18.780;2022-12-24T09:50:39;10.50;;;3.90;;
71902;SDS011;59778;50.310;18.780;2022-12-24T10:36:56;14.57;;;5.00;;
71902;SDS011;59778;50.310;18.780;2022-12-24T10:52:23;14.83;;;7.43;;
71902;SDS011;59778;50.310;18.780;2022-12-24T11:07:58;10.40;;;4.77;;
71902;SDS011;59778;50.310;18.780;2022-12-24T11:23:24;15.43;;;5.90;;
71902;SDS011;59778;50.310;18.780;2022-12-24T11:38:50;15.80;;;5.30;;
71902;SDS011;59778;50.310;18.780;2022-12-24T11:54:15;18.43;;;6.67;;
71902;SDS011;59778;50.310;18.780;2022-12-24T12:10:29;15.87;;;5.47;;
71902;SDS011;59778;50.310;18.780;2022-12-24T12:41:38;11.43;;;4.03;;
71902;SDS011;59778;50.310;18.780;2022-12-24T12:57:20;15.53;;;5.50;;
71902;SDS011;59778;50.310;18.780;2022-12-24T13:12:52;18.83;;;8.00;;
71902;SDS011;59778;50.310;18.780;2022-12-24T13:44:00;16.47;;;6.40;;
71902;SDS011;59778;50.310;18.780;2022-12-24T13:59:25;17.40;;;6.70;;
71902;SDS011;59778;50.310;18.780;2022-12-24T14:14:54;23.47;;;7.07;;
71902;SDS011;59778;50.310;18.780;2022-12-24T14:30:20;14.10;;;4.80;;
71902;SDS011;59778;50.310;18.780;2022-12-24T15:01:28;12.27;;;4.50;;
71902;SDS011;59778;50.310;18.780;2022-12-24T15:16:52;21.73;;;6.00;;
71902;SDS011;59778;50.310;18.780;2022-12-24T15:32:16;13.97;;;4.23;;
71902;SDS011;59778;50.310;18.780;2022-12-24T15:47:42;55.60;;;18.90;;
71902;SDS011;59778;50.310;18.780;2022-12-24T16:03:19;54.67;;;17.57;;
71902;SDS011;59778;50.310;18.780;2022-12-24T16:18:54;43.10;;;14.13;;
71902;SDS011;59778;50.310;18.780;2022-12-24T16:34:18;43.87;;;16.43;;
71902;SDS011;59778;50.310;18.780;2022-12-24T16:49:43;20.07;;;7.00;;
71902;SDS011;59778;50.310;18.780;2022-12-24T17:05:04;9.90;;;3.13;;
71902;SDS011;59778;50.310;18.780;2022-12-24T17:20:26;27.73;;;10.93;;
71902;SDS011;59778;50.310;18.780;2022-12-24T17:35:48;24.70;;;7.63;;
71902;SDS011;59778;50.310;18.780;2022-12-24T17:51:12;18.60;;;6.37;;
71902;SDS011;59778;50.310;18.780;2022-12-24T18:06:37;24.83;;;8.83;;
71902;SDS011;59778;50.310;18.780;2022-12-24T18:22:01;49.13;;;15.83;;
71902;SDS011;59778;50.310;18.780;2022-12-24T18:37:22;27.97;;;9.80;;
71902;SDS011;59778;50.310;18.780;2022-12-24T18:52:43;45.87;;;14.73;;
71902;SDS011;59778;50.310;18.780;2022-12-24T19:08:04;95.60;;;34.53;;
71902;SDS011;59778;50.310;18.780;2022-12-24T19:23:26;43.27;;;18.57;;
71902;SDS011;59778;50.310;18.780;2022-12-24T19:38:47;68.37;;;30.03;;
71902;SDS011;59778;50.310;18.780;2022-12-24T19:54:09;48.73;;;21.03;;
71902;SDS011;59778;50.310;18.780;2022-12-24T20:09:32;62.70;;;26.20;;
71902;SDS011;59778;50.310;18.780;2022-12-24T20:24:53;47.80;;;20.00;;
71902;SDS011;59778;50.310;18.780;2022-12-24T20:40:15;139.50;;;62.10;;
71902;SDS011;59778;50.310;18.780;2022-12-24T20:55:36;60.23;;;27.30;;
71902;SDS011;59778;50.310;18.780;2022-12-24T21:10:57;47.37;;;20.03;;
71902;SDS011;59778;50.310;18.780;2022-12-24T21:26:39;47.47;;;19.53;;
71902;SDS011;59778;50.310;18.780;2022-12-24T21:42:00;51.00;;;16.27;;
71902;SDS011;59778;50.310;18.780;2022-12-24T21:57:21;52.87;;;18.57;;
71902;SDS011;59778;50.310;18.780;2022-12-24T22:13:01;46.10;;;18.97;;
71902;SDS011;59778;50.310;18.780;2022-12-24T22:28:27;51.63;;;20.17;;
71902;SDS011;59778;50.310;18.780;2022-12-24T22:43:48;41.20;;;16.37;;
71902;SDS011;59778;50.310;18.780;2022-12-24T22:59:13;41.23;;;15.70;;
71902;SDS011;59778;50.310;18.780;2022-12-24T23:14:34;33.37;;;12.87;;
71902;SDS011;59778;50.310;18.780;2022-12-24T23:30:14;35.97;;;17.00;;
71902;SDS011;59778;50.310;18.780;2022-12-24T23:45:36;38.63;;;18.37;;
